Weather at Grantley Adams International Airport

Public forecast

Using degrees Celsius for public forecast. Weather courtesy of forecast.io.

Current aviation weather report (METAR) for Grantley Adams International Airport

2024/04/22 12:00 (retrieved 57 minutes ago)

TBPB 221200Z 09015KT 9999 FEW018 29/23 Q1013 NOSIG

Aviation forecast (TAF) for Grantley Adams International Airport

2024/04/22 12:09 (retrieved 48 minutes ago)

TAF TBPB 221100Z 2212/2312 09015KT 9999 SCT022